Time;durP1;ratioP1;P1;durP2;ratioP2;P2;SDS_P1;SDS_P2;PMS_P1;PMS_P2;Temp;Humidity;BMP_temperature;BMP_pressure;BME280_temperature;BME280_humidity;BME280_pressure;Samples;Min_cycle;Max_cycle;Signal;HPM_P1;HPM_P2
2023/08/15 00:02:06;;;;;;;4.93;4.20;;;27.00;88.30;;;;;;5069294;28;20216;-70
2023/08/15 00:04:35;;;;;;;4.40;4.00;;;27.00;88.40;;;;;;5069534;28;20206;-70
2023/08/15 00:07:03;;;;;;;6.13;4.03;;;27.00;88.40;;;;;;5069513;28;20572;-71
2023/08/15 00:09:29;;;;;;;5.87;4.67;;;27.00;88.30;;;;;;5085290;28;20707;-70
2023/08/15 00:11:58;;;;;;;5.13;4.07;;;26.90;88.10;;;;;;5089050;28;20236;-71
2023/08/15 00:14:24;;;;;;;4.83;4.00;;;26.90;89.20;;;;;;5089900;28;20342;-70
2023/08/15 00:16:51;;;;;;;5.13;4.30;;;26.80;88.80;;;;;;5089004;28;20690;-70
2023/08/15 00:19:18;;;;;;;5.77;4.60;;;26.80;89.00;;;;;;5070643;28;20213;-70
2023/08/15 00:21:45;;;;;;;5.17;3.97;;;26.80;89.30;;;;;;5069357;28;20204;-70
2023/08/15 00:24:12;;;;;;;4.30;3.90;;;26.80;90.00;;;;;;5069095;28;20215;-69
2023/08/15 00:26:39;;;;;;;4.13;3.73;;;26.80;89.20;;;;;;5069380;28;20206;-70
2023/08/15 00:29:07;;;;;;;4.33;3.93;;;26.80;89.10;;;;;;5085639;28;20311;-70
2023/08/15 00:31:34;;;;;;;4.40;4.00;;;26.70;89.00;;;;;;5088342;28;20220;-70
2023/08/15 00:34:01;;;;;;;3.93;3.63;;;26.70;88.80;;;;;;5089215;28;20691;-70
2023/08/15 00:36:28;;;;;;;4.13;3.80;;;26.70;89.50;;;;;;5089380;28;20567;-71
2023/08/15 00:38:54;;;;;;;5.00;4.50;;;26.70;88.70;;;;;;5074639;28;20213;-71
2023/08/15 00:41:21;;;;;;;4.50;4.13;;;26.70;88.80;;;;;;5068904;28;20197;-70
2023/08/15 00:43:48;;;;;;;4.93;4.43;;;26.70;89.10;;;;;;5083597;28;20200;-70
2023/08/15 00:46:18;;;;;;;6.07;4.60;;;26.60;89.10;;;;;;5089192;28;20201;-70
2023/08/15 00:48:45;;;;;;;6.20;4.50;;;26.60;89.20;;;;;;5080346;28;20232;-70
2023/08/15 00:51:12;;;;;;;4.63;4.27;;;26.50;89.20;;;;;;5068583;28;20225;-71
2023/08/15 00:53:39;;;;;;;4.43;3.97;;;26.50;89.40;;;;;;5068930;28;20209;-70
2023/08/15 00:56:07;;;;;;;5.33;3.97;;;26.50;89.30;;;;;;5068404;28;20237;-70
2023/08/15 00:58:35;;;;;;;4.93;4.23;;;26.50;89.10;;;;;;5077337;28;20259;-70
2023/08/15 01:01:02;;;;;;;4.60;4.20;;;26.50;89.20;;;;;;5082736;28;20282;-70
2023/08/15 01:03:31;;;;;;;4.37;3.97;;;26.50;90.00;;;;;;5089124;28;20232;-70
2023/08/15 01:05:58;;;;;;;4.60;4.20;;;26.50;89.30;;;;;;5093326;28;20582;-70
2023/08/15 01:08:25;;;;;;;5.83;4.30;;;26.50;89.40;;;;;;5087374;28;20216;-69
2023/08/15 01:10:51;;;;;;;4.97;4.37;;;26.50;89.80;;;;;;5087986;28;20239;-69
2023/08/15 01:13:26;;;;;;;5.50;4.60;;;26.30;89.60;;;;;;5095753;28;20730;-71
2023/08/15 01:15:53;;;;;;;4.63;3.90;;;26.30;89.70;;;;;;5098424;28;20236;-71
2023/08/15 01:18:27;;;;;;;5.20;4.13;;;26.20;89.60;;;;;;5096434;28;20253;-70
2023/08/15 01:20:57;;;;;;;5.17;4.20;;;26.20;90.10;;;;;;5078176;28;20272;-70
2023/08/15 01:23:34;;;;;;;4.77;4.27;;;26.20;89.60;;;;;;5080564;28;20236;-70
2023/08/15 01:26:01;;;;;;;6.23;4.37;;;26.20;89.50;;;;;;5077767;28;20617;-70
2023/08/15 01:28:29;;;;;;;6.00;4.10;;;26.20;89.20;;;;;;5075007;28;20209;-70
2023/08/15 01:31:03;;;;;;;4.70;4.13;;;26.20;89.10;;;;;;5075942;28;20250;-70
2023/08/15 01:33:36;;;;;;;4.60;4.10;;;26.20;89.10;;;;;;5095862;28;20284;-70
2023/08/15 01:36:09;;;;;;;8.37;4.50;;;26.20;89.10;;;;;;5095139;28;20205;-70
2023/08/15 01:38:41;;;;;;;5.53;4.07;;;26.20;89.10;;;;;;5095242;28;20595;-70
2023/08/15 01:41:09;;;;;;;4.80;4.40;;;26.10;89.10;;;;;;5092643;28;20243;-70
2023/08/15 01:43:37;;;;;;;4.97;4.57;;;26.20;89.40;;;;;;5080905;28;20201;-70
2023/08/15 01:46:05;;;;;;;5.20;4.40;;;26.10;89.40;;;;;;5075099;28;20256;-70
2023/08/15 01:48:32;;;;;;;5.03;4.10;;;26.10;89.50;;;;;;5075219;28;20254;-70
2023/08/15 01:50:59;;;;;;;5.17;4.33;;;26.10;89.40;;;;;;5075091;28;20280;-70
2023/08/15 01:53:26;;;;;;;5.03;4.53;;;26.10;89.50;;;;;;5075092;28;20212;-69
2023/08/15 01:55:54;;;;;;;4.30;3.90;;;26.20;89.60;;;;;;5074616;28;20233;-70
2023/08/15 01:58:21;;;;;;;5.03;4.50;;;26.10;89.50;;;;;;5087465;28;20228;-70
2023/08/15 02:00:48;;;;;;;5.63;3.90;;;26.10;89.50;;;;;;5074824;28;20669;-70
2023/08/15 02:03:15;;;;;;;4.43;3.90;;;26.10;89.50;;;;;;5075206;28;20201;-70
2023/08/15 02:05:41;;;;;;;5.60;4.30;;;26.10;89.50;;;;;;5074511;28;20206;-70
2023/08/15 02:08:08;;;;;;;5.20;4.33;;;26.10;89.50;;;;;;5089761;28;20208;-70
2023/08/15 02:10:35;;;;;;;5.40;4.33;;;26.10;89.60;;;;;;5094759;28;20212;-70
2023/08/15 02:13:03;;;;;;;4.73;4.23;;;26.10;89.90;;;;;;5094506;28;20206;-70
2023/08/15 02:15:30;;;;;;;6.70;4.50;;;26.10;90.00;;;;;;5094711;28;20208;-70
2023/08/15 02:17:57;;;;;;;4.43;4.03;;;26.10;90.00;;;;;;5077744;28;20217;-69
2023/08/15 02:20:24;;;;;;;4.70;4.30;;;26.10;90.00;;;;;;5071507;28;20384;-69
2023/08/15 02:22:50;;;;;;;4.23;3.80;;;26.10;90.00;;;;;;5076215;28;20271;-70
2023/08/15 02:25:17;;;;;;;4.33;3.93;;;26.10;89.90;;;;;;5071252;28;20220;-70
2023/08/15 02:27:44;;;;;;;5.47;4.30;;;26.10;90.00;;;;;;5071341;28;20205;-70
2023/08/15 02:30:13;;;;;;;4.80;4.30;;;26.10;90.00;;;;;;5071607;28;20451;-70
2023/08/15 02:32:40;;;;;;;4.30;3.90;;;26.10;89.90;;;;;;5084180;28;20220;-69
2023/08/15 02:35:08;;;;;;;5.13;4.47;;;26.10;89.60;;;;;;5091421;28;20216;-70
2023/08/15 02:37:35;;;;;;;4.43;4.03;;;26.10;89.70;;;;;;5091553;28;20377;-69
2023/08/15 02:40:06;;;;;;;4.50;3.93;;;26.00;89.70;;;;;;5091227;28;20232;-71
2023/08/15 02:42:32;;;;;;;4.73;3.77;;;26.00;89.60;;;;;;5086796;28;20185;-70
2023/08/15 02:45:00;;;;;;;7.10;4.10;;;26.00;89.40;;;;;;5071158;28;20209;-70
2023/08/15 02:47:28;;;;;;;5.20;4.40;;;26.00;89.40;;;;;;5070986;28;20212;-70
2023/08/15 02:49:55;;;;;;;4.70;3.90;;;26.00;89.50;;;;;;5071320;28;20205;-70
2023/08/15 02:52:21;;;;;;;4.87;4.30;;;26.00;89.50;;;;;;5070924;28;20487;-70
2023/08/15 02:54:48;;;;;;;4.33;3.93;;;26.00;89.60;;;;;;5072322;28;20209;-70
2023/08/15 02:57:15;;;;;;;5.17;4.10;;;25.90;89.50;;;;;;5070209;28;20240;-70
2023/08/15 02:59:42;;;;;;;4.30;3.90;;;25.90;89.70;;;;;;5070794;28;20675;-69
2023/08/15 03:02:09;;;;;;;4.77;4.27;;;25.90;89.80;;;;;;5070713;28;20620;-69
2023/08/15 03:04:38;;;;;;;6.20;4.50;;;25.90;89.90;;;;;;5072116;28;20657;-70
2023/08/15 03:07:04;;;;;;;4.50;4.10;;;25.90;89.90;;;;;;5070689;28;20547;-70
2023/08/15 03:09:31;;;;;;;4.50;4.10;;;25.90;89.70;;;;;;5070492;28;20220;-71
2023/08/15 03:11:58;;;;;;;4.40;4.00;;;25.90;89.70;;;;;;5070316;28;20591;-70
2023/08/15 03:14:27;;;;;;;4.90;4.40;;;25.90;89.60;;;;;;5083859;28;20257;-70
2023/08/15 03:16:54;;;;;;;4.53;4.13;;;25.90;89.70;;;;;;5081618;28;20219;-70
2023/08/15 03:19:21;;;;;;;7.10;4.57;;;25.90;89.80;;;;;;5070633;28;20205;-70
2023/08/15 03:21:49;;;;;;;5.00;4.50;;;25.90;89.80;;;;;;5070030;28;20847;-70
2023/08/15 03:24:16;;;;;;;6.20;4.23;;;25.80;90.00;;;;;;5074082;28;20204;-70
2023/08/15 03:26:43;;;;;;;5.63;4.40;;;25.80;90.00;;;;;;5090607;28;20567;-70
2023/08/15 03:29:10;;;;;;;6.30;4.50;;;25.80;90.30;;;;;;5090536;28;20235;-71
2023/08/15 03:31:36;;;;;;;5.17;4.67;;;25.90;90.10;;;;;;5090637;28;20227;-71
2023/08/15 03:34:03;;;;;;;4.73;4.33;;;25.80;90.00;;;;;;5090057;28;20227;-71
2023/08/15 03:36:30;;;;;;;6.30;4.43;;;25.70;89.70;;;;;;5076038;28;20635;-71
2023/08/15 03:38:58;;;;;;;7.17;4.63;;;25.60;90.00;;;;;;5069818;28;20205;-71
2023/08/15 03:41:25;;;;;;;5.70;4.83;;;25.50;90.10;;;;;;5078694;28;20591;-71
2023/08/15 03:43:52;;;;;;;6.40;5.00;;;25.40;90.40;;;;;;5075056;28;20486;-70
2023/08/15 03:46:19;;;;;;;4.90;4.40;;;25.40;90.50;;;;;;5070031;28;20205;-70
2023/08/15 03:48:46;;;;;;;5.57;4.50;;;25.30;90.80;;;;;;5070161;28;20270;-70
2023/08/15 03:51:14;;;;;;;6.47;4.80;;;25.30;90.90;;;;;;5069494;28;20676;-70
2023/08/15 03:53:43;;;;;;;7.53;5.47;;;25.40;90.90;;;;;;5069773;28;20572;-70
2023/08/15 03:56:11;;;;;;;6.03;4.80;;;25.40;90.90;;;;;;5079724;28;20285;-70
2023/08/15 03:58:38;;;;;;;5.80;5.30;;;25.40;90.90;;;;;;5089884;28;20215;-70
2023/08/15 04:01:05;;;;;;;5.60;4.93;;;25.40;90.80;;;;;;5090269;28;20220;-70
2023/08/15 04:03:31;;;;;;;5.20;4.70;;;25.40;90.80;;;;;;5089382;28;20663;-70
2023/08/15 04:05:58;;;;;;;6.93;5.37;;;25.50;90.80;;;;;;5089339;28;20196;-69
2023/08/15 04:08:25;;;;;;;8.67;4.90;;;25.50;90.70;;;;;;5090018;28;20669;-70
2023/08/15 04:10:52;;;;;;;5.73;4.97;;;25.50;90.70;;;;;;5089977;28;20236;-70
2023/08/15 04:13:20;;;;;;;6.83;5.10;;;25.50;90.70;;;;;;5089059;28;20220;-70
2023/08/15 04:15:47;;;;;;;4.77;4.37;;;25.50;90.60;;;;;;5082628;28;20549;-69
2023/08/15 04:18:14;;;;;;;6.30;4.83;;;25.60;90.60;;;;;;5069567;28;20266;-70
2023/08/15 04:20:42;;;;;;;5.43;4.60;;;25.60;90.50;;;;;;5069107;28;20246;-71
2023/08/15 04:23:10;;;;;;;7.70;5.47;;;25.60;90.50;;;;;;5069559;28;20213;-71
2023/08/15 04:25:38;;;;;;;5.90;5.33;;;25.60;90.50;;;;;;5084804;28;20316;-70
2023/08/15 04:28:06;;;;;;;5.80;5.30;;;25.50;90.50;;;;;;5069888;28;20336;-70
2023/08/15 04:30:35;;;;;;;7.43;4.40;;;25.50;90.50;;;;;;5069825;28;20212;-70
2023/08/15 04:33:02;;;;;;;5.90;5.27;;;25.60;90.40;;;;;;5068980;28;20227;-70
2023/08/15 04:35:29;;;;;;;5.10;4.47;;;25.50;90.40;;;;;;5085822;28;20700;-69
2023/08/15 04:37:56;;;;;;;6.20;5.00;;;25.50;90.40;;;;;;5073189;28;20229;-69
2023/08/15 04:40:31;;;;;;;5.70;4.93;;;25.50;90.40;;;;;;5071772;28;20239;-70
2023/08/15 04:42:59;;;;;;;5.60;5.00;;;25.50;90.50;;;;;;5076880;28;20188;-70
2023/08/15 04:45:26;;;;;;;5.37;4.87;;;25.50;90.30;;;;;;5073418;28;20561;-70
2023/08/15 04:47:54;;;;;;;6.83;5.30;;;25.40;90.30;;;;;;5073937;28;20224;-70
2023/08/15 04:50:22;;;;;;;6.10;5.03;;;25.40;90.40;;;;;;5069033;28;20212;-70
2023/08/15 04:52:49;;;;;;;6.17;5.13;;;25.40;90.40;;;;;;5069504;28;20606;-70
2023/08/15 04:55:16;;;;;;;10.73;7.10;;;25.40;90.50;;;;;;5088922;28;20228;-71
2023/08/15 04:57:43;;;;;;;14.63;7.67;;;25.40;90.50;;;;;;5089028;28;20583;-70
2023/08/15 05:00:11;;;;;;;13.37;6.63;;;25.40;90.40;;;;;;5089096;28;20214;-70
2023/08/15 05:02:38;;;;;;;10.00;6.07;;;25.50;90.50;;;;;;5088954;28;20204;-70
2023/08/15 05:05:10;;;;;;;10.10;6.00;;;25.50;90.50;;;;;;5078441;28;20211;-70
2023/08/15 05:07:37;;;;;;;6.27;4.70;;;25.50;90.60;;;;;;5088597;28;20267;-70
2023/08/15 05:10:04;;;;;;;6.30;4.77;;;25.50;90.50;;;;;;5089112;28;20281;-71
2023/08/15 05:12:31;;;;;;;5.60;4.87;;;25.50;90.90;;;;;;5088801;28;20227;-70
2023/08/15 05:14:58;;;;;;;6.03;5.27;;;25.50;90.50;;;;;;5083866;28;20213;-70
2023/08/15 05:17:25;;;;;;;6.07;4.90;;;25.50;90.60;;;;;;5068720;28;20774;-70
2023/08/15 05:19:52;;;;;;;6.53;4.87;;;25.60;90.50;;;;;;5068615;28;20213;-70
2023/08/15 05:22:20;;;;;;;5.50;5.00;;;25.60;90.60;;;;;;5068072;28;20201;-70
2023/08/15 05:24:47;;;;;;;5.23;4.83;;;25.60;90.60;;;;;;5082489;28;20201;-70
2023/08/15 05:27:14;;;;;;;7.33;5.60;;;25.60;90.60;;;;;;5068488;28;20205;-71
2023/08/15 05:29:41;;;;;;;5.40;4.90;;;25.70;90.70;;;;;;5068928;28;20204;-70
2023/08/15 05:32:08;;;;;;;6.40;5.20;;;25.70;90.70;;;;;;5068448;28;20272;-70
2023/08/15 05:34:35;;;;;;;7.20;5.47;;;25.70;90.70;;;;;;5069595;28;20201;-71
2023/08/15 05:37:02;;;;;;;7.27;5.97;;;25.70;90.70;;;;;;5088758;28;20567;-69
2023/08/15 05:39:30;;;;;;;5.80;5.30;;;25.80;90.80;;;;;;5088788;28;20219;-70
2023/08/15 05:41:57;;;;;;;6.63;5.30;;;25.90;90.80;;;;;;5088873;28;20212;-70
2023/08/15 05:44:23;;;;;;;6.40;5.67;;;25.90;90.70;;;;;;5068760;28;20218;-70
2023/08/15 05:46:50;;;;;;;5.27;4.87;;;26.00;90.70;;;;;;5068018;28;20719;-70
2023/08/15 05:49:17;;;;;;;6.20;5.60;;;26.00;90.50;;;;;;5067914;28;20217;-70
2023/08/15 05:51:44;;;;;;;9.73;5.40;;;26.00;90.80;;;;;;5069850;28;20593;-71
2023/08/15 05:54:11;;;;;;;6.00;5.40;;;26.00;90.50;;;;;;5076524;28;20193;-71
2023/08/15 05:56:40;;;;;;;6.23;5.17;;;26.10;90.90;;;;;;5071809;28;20237;-71
2023/08/15 05:59:07;;;;;;;6.53;5.97;;;26.10;90.70;;;;;;5075759;28;20383;-69
2023/08/15 06:01:34;;;;;;;6.80;6.20;;;26.20;90.70;;;;;;5072838;28;20209;-69
2023/08/15 06:04:01;;;;;;;8.97;7.97;;;26.20;90.80;;;;;;5072220;28;20217;-69
2023/08/15 06:06:28;;;;;;;8.27;7.53;;;26.20;90.90;;;;;;5074001;28;20607;-70
2023/08/15 06:08:55;;;;;;;8.37;7.50;;;26.20;91.00;;;;;;5073576;28;20209;-69
2023/08/15 06:11:22;;;;;;;10.53;8.10;;;26.20;91.00;;;;;;5072070;28;20216;-71
2023/08/15 06:13:50;;;;;;;10.33;9.23;;;26.30;91.10;;;;;;5073597;28;20588;-70
2023/08/15 06:16:17;;;;;;;10.27;7.93;;;26.30;91.10;;;;;;5089962;28;20205;-71
2023/08/15 06:18:44;;;;;;;8.73;7.93;;;26.30;91.00;;;;;;5091717;28;20209;-71
2023/08/15 06:21:10;;;;;;;10.13;8.20;;;26.30;91.30;;;;;;5092527;28;20210;-70
2023/08/15 06:23:37;;;;;;;10.67;9.53;;;26.20;91.00;;;;;;5075350;28;20236;-70
2023/08/15 06:26:04;;;;;;;9.33;8.40;;;26.20;91.00;;;;;;5087780;28;20207;-70
2023/08/15 06:28:31;;;;;;;8.37;7.60;;;26.20;91.00;;;;;;5094038;28;20216;-70
2023/08/15 06:30:59;;;;;;;9.37;8.43;;;26.30;91.20;;;;;;5093877;28;20224;-70
2023/08/15 06:33:27;;;;;;;9.17;8.37;;;26.30;91.20;;;;;;5079706;28;20221;-71
2023/08/15 06:35:53;;;;;;;10.30;8.10;;;26.30;91.30;;;;;;5085021;28;20243;-71
2023/08/15 06:38:20;;;;;;;8.97;8.07;;;26.20;91.30;;;;;;5084596;28;20212;-71
2023/08/15 06:40:47;;;;;;;8.57;7.77;;;26.20;91.50;;;;;;5093437;28;20216;-69
2023/08/15 06:43:14;;;;;;;7.27;6.57;;;26.20;91.30;;;;;;5083058;28;20236;-70
2023/08/15 06:45:41;;;;;;;9.13;6.57;;;26.30;91.30;;;;;;5075256;28;20197;-70
2023/08/15 06:48:09;;;;;;;8.87;7.60;;;26.30;91.30;;;;;;5084108;28;20252;-70
2023/08/15 06:50:36;;;;;;;9.03;8.13;;;26.40;91.30;;;;;;5074100;28;20210;-70
2023/08/15 06:53:03;;;;;;;8.70;7.80;;;26.40;91.30;;;;;;5090244;28;20224;-70
2023/08/15 06:55:29;;;;;;;6.40;5.80;;;26.40;91.30;;;;;;5094013;28;20233;-71
2023/08/15 06:57:56;;;;;;;7.03;6.33;;;26.50;91.20;;;;;;5090501;28;20693;-71
2023/08/15 07:00:23;;;;;;;8.03;7.03;;;26.50;91.00;;;;;;5082610;28;20204;-71
2023/08/15 07:02:50;;;;;;;6.97;6.33;;;26.60;90.90;;;;;;5079203;28;20193;-70
2023/08/15 07:05:18;;;;;;;7.30;6.60;;;26.50;90.80;;;;;;5088769;28;20210;-70
2023/08/15 07:07:45;;;;;;;7.13;6.43;;;26.60;90.90;;;;;;5078379;28;20312;-69
2023/08/15 07:10:12;;;;;;;8.30;6.03;;;26.60;90.80;;;;;;5072914;28;20209;-71
2023/08/15 07:12:39;;;;;;;7.47;6.77;;;26.70;90.80;;;;;;5072484;28;20224;-70
2023/08/15 07:15:07;;;;;;;7.73;6.57;;;26.80;90.60;;;;;;5072604;28;20212;-69
2023/08/15 07:17:34;;;;;;;6.77;6.07;;;26.90;90.30;;;;;;5071861;28;20291;-71
2023/08/15 07:20:01;;;;;;;8.67;6.20;;;26.90;90.30;;;;;;5083009;28;20222;-70
2023/08/15 07:22:29;;;;;;;6.33;5.43;;;27.10;90.20;;;;;;5092614;28;20295;-70
2023/08/15 07:24:56;;;;;;;6.47;5.27;;;27.20;90.20;;;;;;5092716;28;20691;-71
2023/08/15 07:27:23;;;;;;;6.13;5.60;;;27.40;90.20;;;;;;5092497;28;20234;-70
2023/08/15 07:29:49;;;;;;;6.67;5.23;;;27.50;89.70;;;;;;5092233;28;20220;-71
2023/08/15 07:32:16;;;;;;;6.37;5.00;;;27.60;89.30;;;;;;5092198;28;20593;-69
2023/08/15 07:34:43;;;;;;;5.47;4.97;;;27.70;89.00;;;;;;5092446;28;20182;-71
2023/08/15 07:37:10;;;;;;;5.57;4.53;;;27.90;88.50;;;;;;5092051;28;20225;-70
2023/08/15 07:39:39;;;;;;;5.67;4.20;;;28.00;88.50;;;;;;5092909;28;20732;-70
2023/08/15 07:42:06;;;;;;;5.67;4.80;;;28.10;87.70;;;;;;5092902;28;20214;-70
2023/08/15 07:44:33;;;;;;;4.83;4.43;;;28.20;86.90;;;;;;5072793;28;20331;-70
2023/08/15 07:46:59;;;;;;;8.93;4.40;;;28.30;86.50;;;;;;5072575;28;20189;-71
2023/08/15 07:49:26;;;;;;;5.20;4.50;;;28.30;85.70;;;;;;5073122;28;20204;-70
2023/08/15 07:51:54;;;;;;;4.63;4.27;;;28.40;85.50;;;;;;5072986;28;20291;-71
2023/08/15 07:54:21;;;;;;;4.50;4.10;;;28.40;85.80;;;;;;5074059;28;20326;-70
2023/08/15 07:56:49;;;;;;;4.70;4.03;;;28.40;84.40;;;;;;5072939;28;20240;-70
2023/08/15 07:59:16;;;;;;;4.87;4.40;;;28.40;84.30;;;;;;5079534;28;20263;-71
2023/08/15 08:01:43;;;;;;;4.67;3.83;;;28.50;84.80;;;;;;5089931;28;20287;-71
2023/08/15 08:04:10;;;;;;;5.50;4.10;;;28.50;84.90;;;;;;5077251;28;20220;-71
2023/08/15 08:06:37;;;;;;;4.97;4.40;;;28.50;84.60;;;;;;5090141;28;20201;-71
2023/08/15 08:09:05;;;;;;;6.47;4.63;;;28.50;83.30;;;;;;5097041;28;20267;-71
2023/08/15 08:11:32;;;;;;;5.43;4.63;;;28.50;83.30;;;;;;5083411;28;20292;-70
2023/08/15 08:14:00;;;;;;;6.07;5.00;;;28.40;83.40;;;;;;5071463;28;20237;-70
2023/08/15 08:16:27;;;;;;;5.33;4.70;;;28.40;83.60;;;;;;5035648;28;20210;-70
2023/08/15 08:18:54;;;;;;;5.27;4.77;;;28.50;84.00;;;;;;5072223;28;20295;-71
2023/08/15 08:21:21;;;;;;;5.53;5.03;;;28.60;84.40;;;;;;5072386;28;20579;-70
2023/08/15 08:23:48;;;;;;;5.17;4.47;;;28.60;84.40;;;;;;5072231;28;20201;-70
2023/08/15 08:26:15;;;;;;;5.77;4.70;;;28.80;84.20;;;;;;5071825;28;20260;-70
2023/08/15 08:28:41;;;;;;;5.87;4.23;;;28.80;83.90;;;;;;5072078;28;20213;-70
2023/08/15 08:31:10;;;;;;;5.63;4.57;;;28.90;84.50;;;;;;5072021;28;20208;-71
2023/08/15 08:33:37;;;;;;;5.77;4.60;;;28.90;83.20;;;;;;5071662;28;20767;-71
2023/08/15 08:36:05;;;;;;;5.13;4.63;;;29.00;83.10;;;;;;5072196;28;20216;-71
2023/08/15 08:38:31;;;;;;;7.30;4.50;;;29.10;83.20;;;;;;5072272;28;20237;-71
2023/08/15 08:40:58;;;;;;;5.03;4.57;;;29.20;83.00;;;;;;5071593;28;20204;-70
2023/08/15 08:43:26;;;;;;;4.67;4.27;;;29.30;81.70;;;;;;5082896;28;20822;-71
2023/08/15 08:45:56;;;;;;;6.00;4.60;;;29.30;81.60;;;;;;5091998;28;20213;-72
2023/08/15 08:48:25;;;;;;;4.97;4.40;;;29.50;81.40;;;;;;5092289;28;20192;-71
2023/08/15 08:50:52;;;;;;;5.13;4.63;;;29.50;81.30;;;;;;5092297;28;20311;-71
2023/08/15 08:53:19;;;;;;;5.20;4.47;;;29.60;81.20;;;;;;5091959;28;20245;-71
2023/08/15 08:55:48;;;;;;;5.90;4.67;;;29.80;81.20;;;;;;5091795;28;20332;-71
2023/08/15 08:58:15;;;;;;;5.13;4.63;;;30.00;80.60;;;;;;5091874;28;20188;-71
2023/08/15 09:00:42;;;;;;;5.00;4.50;;;30.10;80.00;;;;;;5091725;28;20648;-69
2023/08/15 09:03:09;;;;;;;5.20;4.70;;;30.10;79.30;;;;;;5092031;28;20212;-71
2023/08/15 09:05:38;;;;;;;7.93;4.97;;;30.20;79.40;;;;;;5092164;28;20243;-70
2023/08/15 09:08:05;;;;;;;6.30;5.33;;;30.30;79.60;;;;;;5091498;28;20703;-70
2023/08/15 09:10:32;;;;;;;8.07;5.23;;;30.30;78.50;;;;;;5092047;28;20542;-70
2023/08/15 09:13:00;;;;;;;5.53;5.00;;;30.30;79.10;;;;;;5091415;28;20234;-71
2023/08/15 09:15:27;;;;;;;5.03;4.63;;;30.30;78.40;;;;;;5091943;28;20200;-71
2023/08/15 09:18:00;;;;;;;5.47;4.97;;;30.30;78.10;;;;;;5091771;28;20208;-72
2023/08/15 09:20:27;;;;;;;7.10;5.17;;;30.30;77.20;;;;;;5092009;28;20211;-71
2023/08/15 09:22:58;;;;;;;5.97;5.00;;;30.40;78.10;;;;;;5091711;28;20208;-71
2023/08/15 09:25:27;;;;;;;6.93;5.10;;;30.50;78.50;;;;;;5091873;28;20227;-71
2023/08/15 09:27:54;;;;;;;5.43;4.93;;;30.50;78.20;;;;;;5095018;28;20214;-70
2023/08/15 09:30:22;;;;;;;6.63;5.30;;;30.70;78.70;;;;;;5095937;28;20246;-70
2023/08/15 09:32:49;;;;;;;5.43;4.87;;;30.80;78.60;;;;;;5095788;28;20204;-71
2023/08/15 09:35:17;;;;;;;7.67;5.53;;;31.00;78.50;;;;;;5095786;28;20220;-70
2023/08/15 09:37:45;;;;;;;7.17;5.50;;;31.10;77.30;;;;;;5095241;28;20690;-70
2023/08/15 09:40:16;;;;;;;6.10;5.37;;;31.20;77.00;;;;;;5095568;28;20204;-70
2023/08/15 09:42:44;;;;;;;6.23;5.63;;;31.20;76.20;;;;;;5089635;28;20583;-70
2023/08/15 09:45:12;;;;;;;6.43;5.80;;;31.30;77.00;;;;;;5075097;28;20376;-70
2023/08/15 09:47:40;;;;;;;6.60;5.40;;;31.30;76.00;;;;;;5074887;28;20232;-71
2023/08/15 09:50:08;;;;;;;5.97;5.40;;;31.30;76.00;;;;;;5075336;28;20220;-71
2023/08/15 09:52:38;;;;;;;6.57;5.93;;;31.40;75.80;;;;;;5074978;28;20243;-70
2023/08/15 09:55:08;;;;;;;7.10;5.70;;;31.40;75.40;;;;;;5074830;28;20646;-71
2023/08/15 09:57:36;;;;;;;6.77;6.10;;;31.30;75.20;;;;;;5074325;28;20228;-71
2023/08/15 10:00:04;;;;;;;6.20;5.60;;;31.20;74.60;;;;;;5075025;28;20229;-70
2023/08/15 10:02:33;;;;;;;6.77;6.07;;;31.20;74.80;;;;;;5074667;28;20213;-71
2023/08/15 10:05:03;;;;;;;5.63;5.23;;;31.20;75.10;;;;;;5074708;28;20681;-72
2023/08/15 10:07:33;;;;;;;6.80;6.10;;;31.20;75.30;;;;;;5074307;28;20292;-71
2023/08/15 10:10:03;;;;;;;6.27;5.67;;;31.20;75.20;;;;;;5075022;28;20212;-72
2023/08/15 10:12:31;;;;;;;6.17;5.67;;;31.20;75.80;;;;;;5074418;28;20257;-70
2023/08/15 10:15:00;;;;;;;8.70;5.97;;;31.20;75.30;;;;;;5074589;28;20261;-70
2023/08/15 10:17:29;;;;;;;6.73;5.47;;;31.30;74.70;;;;;;5074577;28;20225;-71
2023/08/15 10:20:01;;;;;;;6.17;5.57;;;31.30;73.20;;;;;;5074615;28;20204;-72
2023/08/15 10:22:29;;;;;;;10.67;5.10;;;31.30;73.40;;;;;;5074272;28;20605;-70
2023/08/15 10:25:16;;;;;;;6.43;5.70;;;31.30;73.10;;;;;;5074120;28;20193;-71
2023/08/15 10:27:47;;;;;;;7.07;5.33;;;31.10;72.60;;;;;;5073955;28;20205;-70
2023/08/15 10:30:28;;;;;;;6.23;5.13;;;30.90;72.40;;;;;;5074758;28;20211;-71
2023/08/15 10:32:55;;;;;;;7.57;5.37;;;30.80;72.30;;;;;;5074029;28;20201;-72
2023/08/15 10:35:26;;;;;;;6.37;5.77;;;30.80;72.70;;;;;;5074098;28;20286;-72
2023/08/15 10:37:55;;;;;;;7.50;5.10;;;30.70;72.00;;;;;;5073125;28;20289;-72
2023/08/15 10:40:22;;;;;;;7.23;5.43;;;30.70;72.90;;;;;;5073993;28;20587;-71
2023/08/15 10:43:10;;;;;;;6.17;5.43;;;30.70;72.80;;;;;;5080267;28;20193;-70
2023/08/15 10:45:41;;;;;;;6.10;5.50;;;30.60;72.20;;;;;;5094126;28;20250;-71
2023/08/15 10:48:08;;;;;;;5.80;4.93;;;30.50;72.40;;;;;;5094578;28;20196;-71
2023/08/15 10:50:36;;;;;;;6.13;5.40;;;30.60;73.10;;;;;;5094046;28;20210;-71
2023/08/15 10:53:05;;;;;;;5.97;4.97;;;30.70;72.80;;;;;;5093680;28;20224;-71
2023/08/15 10:55:34;;;;;;;7.47;5.63;;;30.70;72.60;;;;;;5093764;28;20224;-72
2023/08/15 10:58:03;;;;;;;5.90;5.30;;;30.80;72.30;;;;;;5094172;28;20239;-72
2023/08/15 11:00:32;;;;;;;7.57;5.33;;;30.90;72.20;;;;;;5094158;28;20299;-70
2023/08/15 11:03:01;;;;;;;6.17;5.37;;;30.90;71.10;;;;;;5094038;28;20246;-73
2023/08/15 11:05:28;;;;;;;5.60;4.93;;;30.90;71.50;;;;;;5094049;28;20288;-71
2023/08/15 11:07:55;;;;;;;6.97;5.13;;;30.90;72.40;;;;;;5093606;28;20204;-71
2023/08/15 11:10:23;;;;;;;6.83;5.13;;;31.10;73.00;;;;;;5093727;28;20228;-72
2023/08/15 11:12:51;;;;;;;6.40;5.27;;;31.30;72.70;;;;;;5093787;28;20255;-72
2023/08/15 11:15:18;;;;;;;6.53;5.60;;;31.40;72.80;;;;;;5094230;28;20233;-72
2023/08/15 11:17:46;;;;;;;6.27;5.13;;;31.50;71.90;;;;;;5094168;28;20620;-72
2023/08/15 11:20:14;;;;;;;10.30;5.90;;;31.60;71.60;;;;;;5093634;28;20208;-71
2023/08/15 11:22:41;;;;;;;6.53;5.83;;;31.60;71.20;;;;;;5094000;28;20705;-71
2023/08/15 11:25:09;;;;;;;6.70;5.60;;;31.50;70.70;;;;;;5094009;28;20212;-70
2023/08/15 11:27:40;;;;;;;7.27;5.40;;;31.40;71.30;;;;;;5093146;28;20747;-72
2023/08/15 11:30:08;;;;;;;6.30;5.70;;;31.40;72.00;;;;;;5094613;28;20455;-70
2023/08/15 11:32:37;;;;;;;6.30;5.70;;;31.50;72.30;;;;;;5094312;28;20216;-72
2023/08/15 11:35:04;;;;;;;6.67;5.20;;;31.60;72.00;;;;;;5093310;28;20210;-71
2023/08/15 11:37:33;;;;;;;5.87;5.30;;;31.80;71.80;;;;;;5094488;28;20662;-71
2023/08/15 11:40:00;;;;;;;6.27;5.67;;;31.90;71.00;;;;;;5093252;28;20251;-72
2023/08/15 11:42:27;;;;;;;6.37;5.73;;;32.10;69.60;;;;;;5089894;28;20210;-71
2023/08/15 11:45:11;;;;;;;6.17;5.63;;;32.30;69.90;;;;;;5073004;28;20230;-72
2023/08/15 11:47:55;;;;;;;6.20;5.60;;;32.40;67.80;;;;;;5072525;28;20220;-72
2023/08/15 11:50:23;;;;;;;5.90;5.30;;;32.50;69.90;;;;;;5072481;28;20233;-70
2023/08/15 11:52:52;;;;;;;5.90;5.40;;;32.60;69.40;;;;;;5072487;28;20223;-71
2023/08/15 11:55:19;;;;;;;7.50;5.90;;;32.50;67.50;;;;;;5072290;28;20798;-72
2023/08/15 11:57:46;;;;;;;6.40;5.20;;;32.30;66.20;;;;;;5073269;28;20235;-72
2023/08/15 12:00:16;;;;;;;5.83;5.27;;;32.10;67.40;;;;;;5075954;28;20218;-72
2023/08/15 12:02:44;;;;;;;6.87;6.10;;;32.10;67.90;;;;;;5072323;28;20229;-72
2023/08/15 12:05:15;;;;;;;6.57;5.20;;;32.20;67.30;;;;;;5072537;28;20203;-71
2023/08/15 12:07:43;;;;;;;6.40;5.60;;;32.30;67.70;;;;;;5071715;28;20700;-71
2023/08/15 12:10:13;;;;;;;7.80;5.77;;;32.40;67.20;;;;;;5072624;28;20277;-71
2023/08/15 12:12:42;;;;;;;6.53;5.80;;;32.50;67.50;;;;;;5072361;28;20222;-72
2023/08/15 12:15:10;;;;;;;6.17;5.27;;;32.80;67.70;;;;;;5072076;28;20237;-71
2023/08/15 12:17:38;;;;;;;6.90;4.90;;;32.80;65.70;;;;;;5071878;28;20808;-73
2023/08/15 12:20:08;;;;;;;6.27;5.23;;;32.70;66.60;;;;;;5071918;28;20231;-71
2023/08/15 12:22:35;;;;;;;4.43;3.70;;;32.80;63.80;;;;;;5071684;28;20226;-71
2023/08/15 12:25:02;;;;;;;5.17;4.33;;;32.50;61.80;;;;;;5072402;28;20223;-70
2023/08/15 12:27:30;;;;;;;4.00;3.70;;;32.50;62.00;;;;;;5072418;28;20217;-71
2023/08/15 12:29:57;;;;;;;3.50;3.20;;;32.70;60.70;;;;;;5072840;28;20206;-71
2023/08/15 12:32:25;;;;;;;4.37;3.20;;;32.80;59.60;;;;;;5071981;28;20235;-71
2023/08/15 12:34:52;;;;;;;3.43;2.97;;;32.80;57.10;;;;;;5072034;28;20583;-71
2023/08/15 12:37:18;;;;;;;3.47;2.93;;;32.70;57.90;;;;;;5072015;28;20246;-70
2023/08/15 12:39:45;;;;;;;3.80;2.97;;;32.80;58.80;;;;;;5074206;28;20203;-71
2023/08/15 12:42:14;;;;;;;3.93;2.70;;;32.70;57.90;;;;;;5073009;28;20215;-71
2023/08/15 12:44:42;;;;;;;3.00;2.70;;;32.80;58.00;;;;;;5092816;28;20230;-71
2023/08/15 12:47:10;;;;;;;3.87;2.67;;;32.90;58.50;;;;;;5092002;28;20223;-71
2023/08/15 12:49:37;;;;;;;4.27;2.90;;;33.00;57.00;;;;;;5091862;28;20230;-71